sensor_id;sensor_type;location;lat;lon;timestamp;temperature;humidity
11229;DHT22;5671;47.936;8.716;2024-03-22T00:01:49;6.60;76.50
11229;DHT22;5671;47.936;8.716;2024-03-22T00:04:16;6.60;76.70
11229;DHT22;5671;47.936;8.716;2024-03-22T00:06:43;6.60;76.70
11229;DHT22;5671;47.936;8.716;2024-03-22T00:09:10;6.50;77.10
11229;DHT22;5671;47.936;8.716;2024-03-22T00:11:36;6.50;77.50
11229;DHT22;5671;47.936;8.716;2024-03-22T00:14:03;6.40;77.30
11229;DHT22;5671;47.936;8.716;2024-03-22T00:16:29;6.30;78.10
11229;DHT22;5671;47.936;8.716;2024-03-22T00:18:57;6.30;77.80
11229;DHT22;5671;47.936;8.716;2024-03-22T00:21:23;6.30;78.30
11229;DHT22;5671;47.936;8.716;2024-03-22T00:23:50;6.20;78.10
11229;DHT22;5671;47.936;8.716;2024-03-22T00:26:16;6.20;77.50
11229;DHT22;5671;47.936;8.716;2024-03-22T00:28:43;6.10;77.40
11229;DHT22;5671;47.936;8.716;2024-03-22T00:31:09;6.10;77.90
11229;DHT22;5671;47.936;8.716;2024-03-22T00:33:37;6.00;78.30
11229;DHT22;5671;47.936;8.716;2024-03-22T00:36:05;6.10;77.30
11229;DHT22;5671;47.936;8.716;2024-03-22T00:38:32;6.00;77.00
11229;DHT22;5671;47.936;8.716;2024-03-22T00:40:58;6.00;77.30
11229;DHT22;5671;47.936;8.716;2024-03-22T00:43:25;6.00;77.40
11229;DHT22;5671;47.936;8.716;2024-03-22T00:45:51;5.90;77.40
11229;DHT22;5671;47.936;8.716;2024-03-22T00:48:18;5.90;77.50
11229;DHT22;5671;47.936;8.716;2024-03-22T00:50:44;5.90;77.40
11229;DHT22;5671;47.936;8.716;2024-03-22T00:53:12;5.80;77.20
11229;DHT22;5671;47.936;8.716;2024-03-22T00:55:38;5.70;77.20
11229;DHT22;5671;47.936;8.716;2024-03-22T00:58:05;5.60;77.20
11229;DHT22;5671;47.936;8.716;2024-03-22T01:00:31;5.60;77.30
11229;DHT22;5671;47.936;8.716;2024-03-22T01:02:57;5.60;77.40
11229;DHT22;5671;47.936;8.716;2024-03-22T01:05:23;5.50;77.60
11229;DHT22;5671;47.936;8.716;2024-03-22T01:07:51;5.50;77.40
11229;DHT22;5671;47.936;8.716;2024-03-22T01:10:18;5.40;77.30
11229;DHT22;5671;47.936;8.716;2024-03-22T01:12:45;5.30;77.40
11229;DHT22;5671;47.936;8.716;2024-03-22T01:15:11;5.30;77.70
11229;DHT22;5671;47.936;8.716;2024-03-22T01:17:38;5.30;77.90
11229;DHT22;5671;47.936;8.716;2024-03-22T01:20:04;5.20;78.00
11229;DHT22;5671;47.936;8.716;2024-03-22T01:22:31;5.20;78.20
11229;DHT22;5671;47.936;8.716;2024-03-22T01:24:57;5.10;78.20
11229;DHT22;5671;47.936;8.716;2024-03-22T01:27:25;5.10;78.40
11229;DHT22;5671;47.936;8.716;2024-03-22T01:29:51;5.00;78.60
11229;DHT22;5671;47.936;8.716;2024-03-22T01:32:18;5.00;79.00
11229;DHT22;5671;47.936;8.716;2024-03-22T01:34:44;5.00;78.90
11229;DHT22;5671;47.936;8.716;2024-03-22T01:37:10;5.00;78.80
11229;DHT22;5671;47.936;8.716;2024-03-22T01:39:36;4.90;79.40
11229;DHT22;5671;47.936;8.716;2024-03-22T01:42:03;4.90;79.30
11229;DHT22;5671;47.936;8.716;2024-03-22T01:44:32;4.90;79.30
11229;DHT22;5671;47.936;8.716;2024-03-22T01:46:59;4.80;79.40
11229;DHT22;5671;47.936;8.716;2024-03-22T01:49:25;4.80;79.20
11229;DHT22;5671;47.936;8.716;2024-03-22T01:51:53;4.80;79.50
11229;DHT22;5671;47.936;8.716;2024-03-22T01:54:20;4.80;79.20
11229;DHT22;5671;47.936;8.716;2024-03-22T01:56:47;4.70;79.20
11229;DHT22;5671;47.936;8.716;2024-03-22T01:59:13;4.60;79.50
11229;DHT22;5671;47.936;8.716;2024-03-22T02:01:42;4.50;79.70
11229;DHT22;5671;47.936;8.716;2024-03-22T02:04:08;4.50;80.60
11229;DHT22;5671;47.936;8.716;2024-03-22T02:06:34;4.40;82.50
11229;DHT22;5671;47.936;8.716;2024-03-22T02:09:00;4.40;81.90
11229;DHT22;5671;47.936;8.716;2024-03-22T02:11:30;4.40;81.30
11229;DHT22;5671;47.936;8.716;2024-03-22T02:13:56;4.40;81.10
11229;DHT22;5671;47.936;8.716;2024-03-22T02:16:22;4.40;80.90
11229;DHT22;5671;47.936;8.716;2024-03-22T02:18:50;4.40;80.70
11229;DHT22;5671;47.936;8.716;2024-03-22T02:21:16;4.40;80.70
11229;DHT22;5671;47.936;8.716;2024-03-22T02:23:43;4.40;80.40
11229;DHT22;5671;47.936;8.716;2024-03-22T02:26:10;4.40;80.80
11229;DHT22;5671;47.936;8.716;2024-03-22T02:28:36;4.40;81.10
11229;DHT22;5671;47.936;8.716;2024-03-22T02:31:03;4.40;81.70
11229;DHT22;5671;47.936;8.716;2024-03-22T02:33:30;4.30;81.80
11229;DHT22;5671;47.936;8.716;2024-03-22T02:35:57;4.30;81.30
11229;DHT22;5671;47.936;8.716;2024-03-22T02:38:23;4.20;81.40
11229;DHT22;5671;47.936;8.716;2024-03-22T02:40:52;4.20;81.00
11229;DHT22;5671;47.936;8.716;2024-03-22T02:43:18;4.20;80.60
11229;DHT22;5671;47.936;8.716;2024-03-22T02:45:46;4.20;81.00
11229;DHT22;5671;47.936;8.716;2024-03-22T02:48:12;4.30;80.90
11229;DHT22;5671;47.936;8.716;2024-03-22T02:50:39;4.20;80.50
11229;DHT22;5671;47.936;8.716;2024-03-22T02:53:05;4.20;80.40
11229;DHT22;5671;47.936;8.716;2024-03-22T02:55:36;4.20;80.70
11229;DHT22;5671;47.936;8.716;2024-03-22T02:58:04;4.20;81.00
11229;DHT22;5671;47.936;8.716;2024-03-22T03:00:30;4.20;81.10
11229;DHT22;5671;47.936;8.716;2024-03-22T03:02:56;4.10;81.00
11229;DHT22;5671;47.936;8.716;2024-03-22T03:05:23;4.20;80.70
11229;DHT22;5671;47.936;8.716;2024-03-22T03:07:49;4.20;80.80
11229;DHT22;5671;47.936;8.716;2024-03-22T03:10:16;4.10;80.80
11229;DHT22;5671;47.936;8.716;2024-03-22T03:12:42;4.10;80.60
11229;DHT22;5671;47.936;8.716;2024-03-22T03:15:10;4.10;81.10
11229;DHT22;5671;47.936;8.716;2024-03-22T03:17:36;4.10;81.20
11229;DHT22;5671;47.936;8.716;2024-03-22T03:20:04;4.10;80.90
11229;DHT22;5671;47.936;8.716;2024-03-22T03:22:33;4.10;79.70
11229;DHT22;5671;47.936;8.716;2024-03-22T03:25:00;4.10;79.90
11229;DHT22;5671;47.936;8.716;2024-03-22T03:27:26;4.00;80.90
11229;DHT22;5671;47.936;8.716;2024-03-22T03:29:53;4.00;80.50
11229;DHT22;5671;47.936;8.716;2024-03-22T03:32:20;4.00;80.60
11229;DHT22;5671;47.936;8.716;2024-03-22T03:34:47;4.00;81.10
11229;DHT22;5671;47.936;8.716;2024-03-22T03:37:13;4.00;81.20
11229;DHT22;5671;47.936;8.716;2024-03-22T03:39:40;3.90;80.60
11229;DHT22;5671;47.936;8.716;2024-03-22T03:42:06;3.90;81.00
11229;DHT22;5671;47.936;8.716;2024-03-22T03:44:33;3.90;81.00
11229;DHT22;5671;47.936;8.716;2024-03-22T03:47:01;3.90;80.90
11229;DHT22;5671;47.936;8.716;2024-03-22T03:49:29;3.90;80.80
11229;DHT22;5671;47.936;8.716;2024-03-22T03:51:55;3.80;81.00
11229;DHT22;5671;47.936;8.716;2024-03-22T03:54:22;3.90;81.30
11229;DHT22;5671;47.936;8.716;2024-03-22T03:56:48;3.80;81.60
11229;DHT22;5671;47.936;8.716;2024-03-22T03:59:15;3.80;81.60
11229;DHT22;5671;47.936;8.716;2024-03-22T04:01:41;3.80;81.40
11229;DHT22;5671;47.936;8.716;2024-03-22T04:04:07;3.70;81.50
11229;DHT22;5671;47.936;8.716;2024-03-22T04:06:35;3.70;81.60
11229;DHT22;5671;47.936;8.716;2024-03-22T04:09:01;3.70;81.80
11229;DHT22;5671;47.936;8.716;2024-03-22T04:11:28;3.70;81.30
11229;DHT22;5671;47.936;8.716;2024-03-22T04:13:55;3.70;81.40
11229;DHT22;5671;47.936;8.716;2024-03-22T04:16:21;3.70;81.80
11229;DHT22;5671;47.936;8.716;2024-03-22T04:18:47;3.70;82.10
11229;DHT22;5671;47.936;8.716;2024-03-22T04:21:13;3.70;82.30
11229;DHT22;5671;47.936;8.716;2024-03-22T04:23:42;3.60;82.20
11229;DHT22;5671;47.936;8.716;2024-03-22T04:26:08;3.60;82.10
11229;DHT22;5671;47.936;8.716;2024-03-22T04:28:34;3.60;82.40
11229;DHT22;5671;47.936;8.716;2024-03-22T04:31:02;3.70;82.60
11229;DHT22;5671;47.936;8.716;2024-03-22T04:33:30;3.70;82.60
11229;DHT22;5671;47.936;8.716;2024-03-22T04:35:56;3.70;82.60
11229;DHT22;5671;47.936;8.716;2024-03-22T04:38:24;3.70;83.00
11229;DHT22;5671;47.936;8.716;2024-03-22T04:40:52;3.70;83.30
11229;DHT22;5671;47.936;8.716;2024-03-22T04:43:19;3.70;83.50
11229;DHT22;5671;47.936;8.716;2024-03-22T04:45:47;3.70;82.70
11229;DHT22;5671;47.936;8.716;2024-03-22T04:48:14;3.80;82.40
11229;DHT22;5671;47.936;8.716;2024-03-22T04:50:41;3.70;82.90
11229;DHT22;5671;47.936;8.716;2024-03-22T04:53:07;3.70;83.50
11229;DHT22;5671;47.936;8.716;2024-03-22T04:55:34;3.70;83.80
11229;DHT22;5671;47.936;8.716;2024-03-22T04:58:01;3.70;83.40
11229;DHT22;5671;47.936;8.716;2024-03-22T05:00:28;3.80;83.20
11229;DHT22;5671;47.936;8.716;2024-03-22T05:02:54;3.80;83.50
11229;DHT22;5671;47.936;8.716;2024-03-22T05:05:21;3.80;83.60
11229;DHT22;5671;47.936;8.716;2024-03-22T05:07:47;3.80;83.40
11229;DHT22;5671;47.936;8.716;2024-03-22T05:10:14;3.80;83.40
11229;DHT22;5671;47.936;8.716;2024-03-22T05:12:43;3.80;83.40
11229;DHT22;5671;47.936;8.716;2024-03-22T05:15:11;3.80;83.80
11229;DHT22;5671;47.936;8.716;2024-03-22T05:17:37;3.90;83.80
11229;DHT22;5671;47.936;8.716;2024-03-22T05:20:05;3.90;83.50
11229;DHT22;5671;47.936;8.716;2024-03-22T05:22:34;3.90;83.90
11229;DHT22;5671;47.936;8.716;2024-03-22T05:25:01;3.90;83.90
11229;DHT22;5671;47.936;8.716;2024-03-22T05:27:27;3.90;83.80
11229;DHT22;5671;47.936;8.716;2024-03-22T05:29:54;3.90;83.40
11229;DHT22;5671;47.936;8.716;2024-03-22T05:32:21;3.90;83.20
11229;DHT22;5671;47.936;8.716;2024-03-22T05:34:48;3.90;82.80
11229;DHT22;5671;47.936;8.716;2024-03-22T05:37:13;4.00;82.60
11229;DHT22;5671;47.936;8.716;2024-03-22T05:39:43;4.00;82.70
11229;DHT22;5671;47.936;8.716;2024-03-22T05:42:09;4.00;82.80
11229;DHT22;5671;47.936;8.716;2024-03-22T05:44:36;4.00;83.00
11229;DHT22;5671;47.936;8.716;2024-03-22T05:47:02;4.00;83.30
11229;DHT22;5671;47.936;8.716;2024-03-22T05:49:30;4.00;83.10
11229;DHT22;5671;47.936;8.716;2024-03-22T05:51:56;4.00;83.30
11229;DHT22;5671;47.936;8.716;2024-03-22T05:54:22;4.00;83.40
11229;DHT22;5671;47.936;8.716;2024-03-22T05:56:48;4.10;82.80
11229;DHT22;5671;47.936;8.716;2024-03-22T05:59:15;4.10;82.50
11229;DHT22;5671;47.936;8.716;2024-03-22T06:01:41;4.10;83.30
11229;DHT22;5671;47.936;8.716;2024-03-22T06:04:08;4.10;83.10
11229;DHT22;5671;47.936;8.716;2024-03-22T06:06:35;4.10;83.30
11229;DHT22;5671;47.936;8.716;2024-03-22T06:09:03;4.10;83.60
11229;DHT22;5671;47.936;8.716;2024-03-22T06:11:30;4.10;82.80
11229;DHT22;5671;47.936;8.716;2024-03-22T06:13:57;4.10;83.10
11229;DHT22;5671;47.936;8.716;2024-03-22T06:16:23;4.10;83.80
11229;DHT22;5671;47.936;8.716;2024-03-22T06:18:49;4.10;83.40
11229;DHT22;5671;47.936;8.716;2024-03-22T06:21:15;4.10;83.00
11229;DHT22;5671;47.936;8.716;2024-03-22T06:23:49;4.10;83.30
11229;DHT22;5671;47.936;8.716;2024-03-22T06:26:15;4.10;83.10
11229;DHT22;5671;47.936;8.716;2024-03-22T06:28:41;4.00;83.30
11229;DHT22;5671;47.936;8.716;2024-03-22T06:31:08;4.00;83.50
11229;DHT22;5671;47.936;8.716;2024-03-22T06:33:34;4.00;84.00
11229;DHT22;5671;47.936;8.716;2024-03-22T06:36:01;4.00;84.10
11229;DHT22;5671;47.936;8.716;2024-03-22T06:38:28;4.00;84.10
11229;DHT22;5671;47.936;8.716;2024-03-22T06:40:57;4.10;83.90
11229;DHT22;5671;47.936;8.716;2024-03-22T06:43:24;4.10;84.30
11229;DHT22;5671;47.936;8.716;2024-03-22T06:45:51;4.10;84.40
11229;DHT22;5671;47.936;8.716;2024-03-22T06:48:17;4.20;84.80
11229;DHT22;5671;47.936;8.716;2024-03-22T06:50:44;4.20;84.80
11229;DHT22;5671;47.936;8.716;2024-03-22T06:53:11;4.30;85.20
11229;DHT22;5671;47.936;8.716;2024-03-22T06:55:38;4.30;85.40
11229;DHT22;5671;47.936;8.716;2024-03-22T06:58:05;4.40;85.10
11229;DHT22;5671;47.936;8.716;2024-03-22T07:00:32;4.50;85.70
11229;DHT22;5671;47.936;8.716;2024-03-22T07:03:01;4.50;85.60
11229;DHT22;5671;47.936;8.716;2024-03-22T07:05:29;4.70;85.70
11229;DHT22;5671;47.936;8.716;2024-03-22T07:07:55;4.80;84.70
11229;DHT22;5671;47.936;8.716;2024-03-22T07:10:23;4.90;84.80
11229;DHT22;5671;47.936;8.716;2024-03-22T07:12:53;4.90;84.90
11229;DHT22;5671;47.936;8.716;2024-03-22T07:15:23;5.10;84.70
11229;DHT22;5671;47.936;8.716;2024-03-22T07:17:49;5.20;84.40
11229;DHT22;5671;47.936;8.716;2024-03-22T07:20:17;5.30;84.00
11229;DHT22;5671;47.936;8.716;2024-03-22T07:22:43;5.40;83.60
11229;DHT22;5671;47.936;8.716;2024-03-22T07:25:11;5.50;83.40
11229;DHT22;5671;47.936;8.716;2024-03-22T07:27:37;5.60;83.60
11229;DHT22;5671;47.936;8.716;2024-03-22T07:30:06;5.80;83.40
11229;DHT22;5671;47.936;8.716;2024-03-22T07:32:33;5.90;82.70
11229;DHT22;5671;47.936;8.716;2024-03-22T07:35:01;6.10;82.60
11229;DHT22;5671;47.936;8.716;2024-03-22T07:37:27;6.20;82.40
11229;DHT22;5671;47.936;8.716;2024-03-22T07:39:53;6.30;82.40
11229;DHT22;5671;47.936;8.716;2024-03-22T07:42:19;6.40;82.40
11229;DHT22;5671;47.936;8.716;2024-03-22T07:44:47;6.50;81.50
11229;DHT22;5671;47.936;8.716;2024-03-22T07:47:12;6.60;81.40
11229;DHT22;5671;47.936;8.716;2024-03-22T07:49:41;6.70;81.40
11229;DHT22;5671;47.936;8.716;2024-03-22T07:52:07;6.90;81.80
11229;DHT22;5671;47.936;8.716;2024-03-22T07:54:33;7.00;81.30
11229;DHT22;5671;47.936;8.716;2024-03-22T07:56:59;7.10;80.80
11229;DHT22;5671;47.936;8.716;2024-03-22T07:59:26;7.20;81.00
11229;DHT22;5671;47.936;8.716;2024-03-22T08:01:52;7.30;80.70
11229;DHT22;5671;47.936;8.716;2024-03-22T08:04:19;7.40;80.30
11229;DHT22;5671;47.936;8.716;2024-03-22T08:06:46;7.60;80.90
11229;DHT22;5671;47.936;8.716;2024-03-22T08:09:13;7.70;79.90
11229;DHT22;5671;47.936;8.716;2024-03-22T08:11:39;7.90;79.40
11229;DHT22;5671;47.936;8.716;2024-03-22T08:14:05;8.00;79.60
11229;DHT22;5671;47.936;8.716;2024-03-22T08:16:31;8.20;79.50
11229;DHT22;5671;47.936;8.716;2024-03-22T08:18:58;8.40;78.40
11229;DHT22;5671;47.936;8.716;2024-03-22T08:21:24;8.50;78.40
11229;DHT22;5671;47.936;8.716;2024-03-22T08:23:52;8.60;77.20
11229;DHT22;5671;47.936;8.716;2024-03-22T08:26:19;8.70;76.50
11229;DHT22;5671;47.936;8.716;2024-03-22T08:28:46;8.90;75.90
11229;DHT22;5671;47.936;8.716;2024-03-22T08:31:13;9.00;75.70
11229;DHT22;5671;47.936;8.716;2024-03-22T08:33:40;9.00;75.30
11229;DHT22;5671;47.936;8.716;2024-03-22T08:36:06;9.10;74.80
11229;DHT22;5671;47.936;8.716;2024-03-22T08:38:33;9.20;75.20
11229;DHT22;5671;47.936;8.716;2024-03-22T08:41:00;9.30;74.90
11229;DHT22;5671;47.936;8.716;2024-03-22T08:43:27;9.40;74.70
11229;DHT22;5671;47.936;8.716;2024-03-22T08:45:54;9.50;74.50
11229;DHT22;5671;47.936;8.716;2024-03-22T08:48:21;9.60;74.40
11229;DHT22;5671;47.936;8.716;2024-03-22T08:50:47;9.80;74.50
11229;DHT22;5671;47.936;8.716;2024-03-22T08:53:14;9.90;74.90
11229;DHT22;5671;47.936;8.716;2024-03-22T08:55:45;10.10;74.20
11229;DHT22;5671;47.936;8.716;2024-03-22T08:58:14;10.20;73.00
11229;DHT22;5671;47.936;8.716;2024-03-22T09:00:41;10.40;72.10
11229;DHT22;5671;47.936;8.716;2024-03-22T09:03:08;10.50;72.10
11229;DHT22;5671;47.936;8.716;2024-03-22T09:05:34;10.70;71.70
11229;DHT22;5671;47.936;8.716;2024-03-22T09:08:01;10.80;71.80
11229;DHT22;5671;47.936;8.716;2024-03-22T09:10:29;10.90;70.90
11229;DHT22;5671;47.936;8.716;2024-03-22T09:12:56;11.10;69.80
11229;DHT22;5671;47.936;8.716;2024-03-22T09:15:23;11.20;69.40
11229;DHT22;5671;47.936;8.716;2024-03-22T09:17:51;11.50;69.10
11229;DHT22;5671;47.936;8.716;2024-03-22T09:20:17;11.80;67.50
11229;DHT22;5671;47.936;8.716;2024-03-22T09:22:44;12.00;67.50
11229;DHT22;5671;47.936;8.716;2024-03-22T09:25:10;12.10;66.40
11229;DHT22;5671;47.936;8.716;2024-03-22T09:27:37;12.30;66.40
11229;DHT22;5671;47.936;8.716;2024-03-22T09:30:04;12.40;64.80
11229;DHT22;5671;47.936;8.716;2024-03-22T09:32:32;12.60;62.60
11229;DHT22;5671;47.936;8.716;2024-03-22T09:34:58;12.80;62.50
11229;DHT22;5671;47.936;8.716;2024-03-22T09:37:25;12.90;61.70
11229;DHT22;5671;47.936;8.716;2024-03-22T09:39:51;13.10;61.10
11229;DHT22;5671;47.936;8.716;2024-03-22T09:42:18;13.10;60.80
11229;DHT22;5671;47.936;8.716;2024-03-22T09:44:47;13.30;59.40
11229;DHT22;5671;47.936;8.716;2024-03-22T09:47:15;13.30;58.70
11229;DHT22;5671;47.936;8.716;2024-03-22T09:49:42;13.40;58.70
11229;DHT22;5671;47.936;8.716;2024-03-22T09:52:13;13.40;60.30
11229;DHT22;5671;47.936;8.716;2024-03-22T09:54:41;13.50;59.40
11229;DHT22;5671;47.936;8.716;2024-03-22T09:57:11;13.50;59.50
11229;DHT22;5671;47.936;8.716;2024-03-22T09:59:38;13.60;59.80
11229;DHT22;5671;47.936;8.716;2024-03-22T10:02:07;13.60;60.20
11229;DHT22;5671;47.936;8.716;2024-03-22T10:04:34;13.70;58.80
11229;DHT22;5671;47.936;8.716;2024-03-22T10:07:03;13.70;59.00
11229;DHT22;5671;47.936;8.716;2024-03-22T10:09:29;13.70;60.80
11229;DHT22;5671;47.936;8.716;2024-03-22T10:11:56;13.80;60.70
11229;DHT22;5671;47.936;8.716;2024-03-22T10:14:22;13.80;59.00
11229;DHT22;5671;47.936;8.716;2024-03-22T10:16:51;13.90;59.10
11229;DHT22;5671;47.936;8.716;2024-03-22T10:19:19;13.90;56.20
11229;DHT22;5671;47.936;8.716;2024-03-22T10:21:46;13.90;57.90
11229;DHT22;5671;47.936;8.716;2024-03-22T10:24:14;14.00;57.60
11229;DHT22;5671;47.936;8.716;2024-03-22T10:26:41;14.00;55.70
11229;DHT22;5671;47.936;8.716;2024-03-22T10:29:07;14.10;57.00
11229;DHT22;5671;47.936;8.716;2024-03-22T10:31:35;14.10;54.70
11229;DHT22;5671;47.936;8.716;2024-03-22T10:34:02;14.20;55.10
11229;DHT22;5671;47.936;8.716;2024-03-22T10:36:32;14.30;56.00
11229;DHT22;5671;47.936;8.716;2024-03-22T10:38:59;14.30;54.90
11229;DHT22;5671;47.936;8.716;2024-03-22T10:41:28;14.30;54.30
11229;DHT22;5671;47.936;8.716;2024-03-22T10:43:54;14.40;53.80
11229;DHT22;5671;47.936;8.716;2024-03-22T10:46:21;14.50;54.00
11229;DHT22;5671;47.936;8.716;2024-03-22T10:48:50;14.50;54.10
11229;DHT22;5671;47.936;8.716;2024-03-22T10:51:18;14.60;55.20
11229;DHT22;5671;47.936;8.716;2024-03-22T10:53:44;14.80;55.90
11229;DHT22;5671;47.936;8.716;2024-03-22T10:56:12;14.90;54.50
11229;DHT22;5671;47.936;8.716;2024-03-22T10:58:41;14.80;54.70
11229;DHT22;5671;47.936;8.716;2024-03-22T11:01:22;14.90;54.30
11229;DHT22;5671;47.936;8.716;2024-03-22T11:03:48;15.00;53.30
11229;DHT22;5671;47.936;8.716;2024-03-22T11:06:18;15.00;53.80
11229;DHT22;5671;47.936;8.716;2024-03-22T11:08:49;15.10;55.50
11229;DHT22;5671;47.936;8.716;2024-03-22T11:11:18;15.20;54.20
11229;DHT22;5671;47.936;8.716;2024-03-22T11:13:47;15.30;53.60
11229;DHT22;5671;47.936;8.716;2024-03-22T11:16:15;15.30;54.50
11229;DHT22;5671;47.936;8.716;2024-03-22T11:18:40;15.30;52.30
11229;DHT22;5671;47.936;8.716;2024-03-22T11:21:07;15.40;51.60
11229;DHT22;5671;47.936;8.716;2024-03-22T11:23:34;15.40;49.30
11229;DHT22;5671;47.936;8.716;2024-03-22T11:26:03;15.40;54.30
11229;DHT22;5671;47.936;8.716;2024-03-22T11:28:29;15.40;54.70
11229;DHT22;5671;47.936;8.716;2024-03-22T11:30:57;15.40;54.90
11229;DHT22;5671;47.936;8.716;2024-03-22T11:33:23;15.40;56.40
11229;DHT22;5671;47.936;8.716;2024-03-22T11:35:52;15.40;55.10
11229;DHT22;5671;47.936;8.716;2024-03-22T11:38:18;15.50;52.70
11229;DHT22;5671;47.936;8.716;2024-03-22T11:40:45;15.50;53.70
11229;DHT22;5671;47.936;8.716;2024-03-22T11:43:12;15.50;52.90
11229;DHT22;5671;47.936;8.716;2024-03-22T11:45:41;15.60;53.70
11229;DHT22;5671;47.936;8.716;2024-03-22T11:48:09;15.70;50.40
11229;DHT22;5671;47.936;8.716;2024-03-22T11:50:36;15.60;52.70
11229;DHT22;5671;47.936;8.716;2024-03-22T11:53:02;15.70;52.20
11229;DHT22;5671;47.936;8.716;2024-03-22T11:55:31;15.70;51.90
11229;DHT22;5671;47.936;8.716;2024-03-22T11:57:57;15.80;52.20
11229;DHT22;5671;47.936;8.716;2024-03-22T12:00:25;15.80;50.50
11229;DHT22;5671;47.936;8.716;2024-03-22T12:02:51;15.80;50.90
11229;DHT22;5671;47.936;8.716;2024-03-22T12:05:20;15.80;52.20
11229;DHT22;5671;47.936;8.716;2024-03-22T12:07:46;15.90;52.50
11229;DHT22;5671;47.936;8.716;2024-03-22T12:10:13;16.00;52.90
11229;DHT22;5671;47.936;8.716;2024-03-22T12:12:39;16.00;51.00
11229;DHT22;5671;47.936;8.716;2024-03-22T12:15:07;16.10;51.50
11229;DHT22;5671;47.936;8.716;2024-03-22T12:17:33;16.10;51.30
11229;DHT22;5671;47.936;8.716;2024-03-22T12:20:01;16.10;50.40
11229;DHT22;5671;47.936;8.716;2024-03-22T12:22:30;16.20;50.90
11229;DHT22;5671;47.936;8.716;2024-03-22T12:24:57;16.20;51.00
11229;DHT22;5671;47.936;8.716;2024-03-22T12:27:24;16.20;50.30
11229;DHT22;5671;47.936;8.716;2024-03-22T12:29:51;16.20;51.40
11229;DHT22;5671;47.936;8.716;2024-03-22T12:32:17;16.30;51.50
11229;DHT22;5671;47.936;8.716;2024-03-22T12:34:44;16.30;52.30
11229;DHT22;5671;47.936;8.716;2024-03-22T12:37:10;16.40;51.20
11229;DHT22;5671;47.936;8.716;2024-03-22T12:39:39;16.40;52.80
11229;DHT22;5671;47.936;8.716;2024-03-22T12:42:05;16.40;51.20
11229;DHT22;5671;47.936;8.716;2024-03-22T12:44:32;16.50;51.70
11229;DHT22;5671;47.936;8.716;2024-03-22T12:46:58;16.50;52.30
11229;DHT22;5671;47.936;8.716;2024-03-22T12:49:25;16.60;53.50
11229;DHT22;5671;47.936;8.716;2024-03-22T12:51:51;16.60;52.90
11229;DHT22;5671;47.936;8.716;2024-03-22T12:54:17;16.60;52.70
11229;DHT22;5671;47.936;8.716;2024-03-22T12:56:45;16.60;50.80
11229;DHT22;5671;47.936;8.716;2024-03-22T12:59:13;16.50;52.50
11229;DHT22;5671;47.936;8.716;2024-03-22T13:01:39;16.50;52.00
11229;DHT22;5671;47.936;8.716;2024-03-22T13:04:06;16.50;51.50
11229;DHT22;5671;47.936;8.716;2024-03-22T13:06:32;16.50;51.20
11229;DHT22;5671;47.936;8.716;2024-03-22T13:09:00;16.60;53.20
11229;DHT22;5671;47.936;8.716;2024-03-22T13:11:26;16.60;51.80
11229;DHT22;5671;47.936;8.716;2024-03-22T13:13:54;16.60;52.10
11229;DHT22;5671;47.936;8.716;2024-03-22T13:16:20;16.70;52.30
11229;DHT22;5671;47.936;8.716;2024-03-22T13:18:47;16.70;52.50
11229;DHT22;5671;47.936;8.716;2024-03-22T13:21:13;16.70;52.10
11229;DHT22;5671;47.936;8.716;2024-03-22T13:23:40;16.80;52.50
11229;DHT22;5671;47.936;8.716;2024-03-22T13:26:06;16.80;49.80
11229;DHT22;5671;47.936;8.716;2024-03-22T13:28:33;16.70;50.50
11229;DHT22;5671;47.936;8.716;2024-03-22T13:31:01;16.70;50.60
11229;DHT22;5671;47.936;8.716;2024-03-22T13:33:28;16.80;50.50
11229;DHT22;5671;47.936;8.716;2024-03-22T13:35:54;16.80;51.00
11229;DHT22;5671;47.936;8.716;2024-03-22T13:38:21;16.80;51.40
11229;DHT22;5671;47.936;8.716;2024-03-22T13:40:53;16.80;50.70
11229;DHT22;5671;47.936;8.716;2024-03-22T13:43:20;16.90;51.20
11229;DHT22;5671;47.936;8.716;2024-03-22T13:45:47;16.90;51.90
11229;DHT22;5671;47.936;8.716;2024-03-22T13:48:17;17.00;50.80
11229;DHT22;5671;47.936;8.716;2024-03-22T13:50:43;17.00;49.40
11229;DHT22;5671;47.936;8.716;2024-03-22T13:53:10;17.00;48.30
11229;DHT22;5671;47.936;8.716;2024-03-22T13:55:36;17.00;48.50
11229;DHT22;5671;47.936;8.716;2024-03-22T13:58:03;17.10;47.60
11229;DHT22;5671;47.936;8.716;2024-03-22T14:00:29;17.00;45.70
11229;DHT22;5671;47.936;8.716;2024-03-22T14:02:56;17.00;46.80
11229;DHT22;5671;47.936;8.716;2024-03-22T14:05:23;17.00;46.70
11229;DHT22;5671;47.936;8.716;2024-03-22T14:07:50;17.00;45.80
11229;DHT22;5671;47.936;8.716;2024-03-22T14:10:16;17.00;45.40
11229;DHT22;5671;47.936;8.716;2024-03-22T14:12:44;17.00;45.40
11229;DHT22;5671;47.936;8.716;2024-03-22T14:15:11;17.00;46.50
11229;DHT22;5671;47.936;8.716;2024-03-22T14:17:37;17.00;44.60
11229;DHT22;5671;47.936;8.716;2024-03-22T14:20:04;17.00;45.00
11229;DHT22;5671;47.936;8.716;2024-03-22T14:22:38;17.00;46.00
11229;DHT22;5671;47.936;8.716;2024-03-22T14:25:05;17.10;43.50
11229;DHT22;5671;47.936;8.716;2024-03-22T14:30:09;17.10;44.70
11229;DHT22;5671;47.936;8.716;2024-03-22T14:32:38;17.10;44.20
11229;DHT22;5671;47.936;8.716;2024-03-22T14:35:04;17.10;44.30
11229;DHT22;5671;47.936;8.716;2024-03-22T14:37:32;17.10;42.10
11229;DHT22;5671;47.936;8.716;2024-03-22T14:39:59;17.10;44.30
11229;DHT22;5671;47.936;8.716;2024-03-22T14:42:26;17.00;43.00
11229;DHT22;5671;47.936;8.716;2024-03-22T14:44:52;17.10;44.80
11229;DHT22;5671;47.936;8.716;2024-03-22T14:47:21;17.00;43.50
11229;DHT22;5671;47.936;8.716;2024-03-22T14:49:49;17.00;45.20
11229;DHT22;5671;47.936;8.716;2024-03-22T14:52:16;17.10;42.90
11229;DHT22;5671;47.936;8.716;2024-03-22T14:54:42;17.00;43.70
11229;DHT22;5671;47.936;8.716;2024-03-22T14:57:10;17.00;42.80
11229;DHT22;5671;47.936;8.716;2024-03-22T14:59:36;16.90;44.30
11229;DHT22;5671;47.936;8.716;2024-03-22T15:02:03;16.90;44.10
11229;DHT22;5671;47.936;8.716;2024-03-22T15:04:29;16.90;44.00
11229;DHT22;5671;47.936;8.716;2024-03-22T15:06:56;16.90;43.30
11229;DHT22;5671;47.936;8.716;2024-03-22T15:09:22;16.90;43.40
11229;DHT22;5671;47.936;8.716;2024-03-22T15:11:50;16.90;43.00
11229;DHT22;5671;47.936;8.716;2024-03-22T15:14:17;17.00;44.40
11229;DHT22;5671;47.936;8.716;2024-03-22T15:16:44;17.00;42.90
11229;DHT22;5671;47.936;8.716;2024-03-22T15:19:10;17.00;44.20
11229;DHT22;5671;47.936;8.716;2024-03-22T15:21:37;16.90;44.60
11229;DHT22;5671;47.936;8.716;2024-03-22T15:24:03;16.90;42.00
11229;DHT22;5671;47.936;8.716;2024-03-22T15:26:31;16.90;44.10
11229;DHT22;5671;47.936;8.716;2024-03-22T15:28:57;16.80;42.90
11229;DHT22;5671;47.936;8.716;2024-03-22T15:31:25;16.80;44.70
11229;DHT22;5671;47.936;8.716;2024-03-22T15:33:51;16.80;43.30
11229;DHT22;5671;47.936;8.716;2024-03-22T15:36:18;16.80;44.00
11229;DHT22;5671;47.936;8.716;2024-03-22T15:38:44;16.70;43.60
11229;DHT22;5671;47.936;8.716;2024-03-22T15:41:11;16.70;42.60
11229;DHT22;5671;47.936;8.716;2024-03-22T15:43:37;16.70;43.30
11229;DHT22;5671;47.936;8.716;2024-03-22T15:46:04;16.60;40.30
11229;DHT22;5671;47.936;8.716;2024-03-22T15:48:32;16.60;42.90
11229;DHT22;5671;47.936;8.716;2024-03-22T15:50:59;16.50;41.50
11229;DHT22;5671;47.936;8.716;2024-03-22T15:53:25;16.50;42.30
11229;DHT22;5671;47.936;8.716;2024-03-22T15:55:51;16.40;40.70